Jhang Weather



Jhang's Current Weather

Temprature 16.1o clear sky

clear sky

Rain: 0 %

Min Temprature15o
Max Temprature17.22o
Humidity82
Wind Speed2.6 m/h
Sun Rise05:45:52
Sun Set18:35:10
Current Time: 09-Apr-2020 02:20:29
Lat/Lon: 33.67, 72.7




Jhang's Geo Location



Jhang's Weather Forecast

Time Overall Temp Min Temp Max Temp Humidity Wind Speed Rain
09-Apr-2020 (Thu)
05:00:00 few clouds 15.340 15.340 16.790 47 1.59 m/h 0 %
08:00:00 overcast clouds 19.450 19.450 20.540 40 0.89 m/h 0 %
11:00:00 overcast clouds 24.650 24.650 25.370 31 0.02 m/h 0 %
14:00:00 overcast clouds 27.740 27.740 28.100 25 2.55 m/h 0 %
17:00:00 broken clouds 27.840 27.840 27.840 29 3.11 m/h 0 %
20:00:00 light rain 18.800 18.800 18.800 59 6.53 m/h 163 %
23:00:00 light rain 17.080 17.080 17.080 61 5 m/h 52 %
10-Apr-2020 (Fri)
02:00:00 light rain 15.620 15.620 15.620 66 3.86 m/h 25 %
05:00:00 scattered clouds 15.330 15.330 15.330 64 3.72 m/h 0 %
08:00:00 few clouds 18.770 18.770 18.770 52 3.9 m/h 0 %
11:00:00 few clouds 24.710 24.710 24.710 38 4.79 m/h 0 %
14:00:00 scattered clouds 27.920 27.920 27.920 32 4.39 m/h 0 %
17:00:00 scattered clouds 26.850 26.850 26.850 36 4.29 m/h 0 %
20:00:00 clear sky 21.860 21.860 21.860 45 2.63 m/h 0 %
23:00:00 clear sky 20.810 20.810 20.810 43 2.81 m/h 0 %
11-Apr-2020 (Sat)
02:00:00 overcast clouds 19.580 19.580 19.580 47 2.42 m/h 0 %
05:00:00 overcast clouds 18.340 18.340 18.340 44 2.34 m/h 0 %
08:00:00 broken clouds 21.840 21.840 21.840 38 2.19 m/h 0 %
11:00:00 broken clouds 27.030 27.030 27.030 28 3.09 m/h 0 %
14:00:00 broken clouds 30.510 30.510 30.510 21 2.34 m/h 0 %
17:00:00 broken clouds 29.280 29.280 29.280 26 2.71 m/h 0 %
20:00:00 scattered clouds 23.580 23.580 23.580 36 2.1 m/h 0 %
23:00:00 broken clouds 21.820 21.820 21.820 40 1.38 m/h 0 %
12-Apr-2020 (Sun)
02:00:00 overcast clouds 20.970 20.970 20.970 42 1.86 m/h 0 %
05:00:00 broken clouds 19.470 19.470 19.470 43 1.99 m/h 0 %
08:00:00 few clouds 23.390 23.390 23.390 37 1.98 m/h 0 %
11:00:00 clear sky 28.910 28.910 28.910 25 3.27 m/h 0 %
14:00:00 scattered clouds 31.950 31.950 31.950 20 3.19 m/h 0 %
17:00:00 broken clouds 30.810 30.810 30.810 25 2.27 m/h 0 %
20:00:00 overcast clouds 24.430 24.430 24.430 33 1.1 m/h 0 %
23:00:00 broken clouds 22.770 22.770 22.770 36 1.36 m/h 0 %
13-Apr-2020 (Mon)
02:00:00 overcast clouds 21.670 21.670 21.670 39 1.48 m/h 0 %
05:00:00 overcast clouds 20.890 20.890 20.890 42 1.78 m/h 0 %
08:00:00 overcast clouds 24.770 24.770 24.770 37 1.73 m/h 0 %
11:00:00 overcast clouds 30.430 30.430 30.430 26 1.96 m/h 0 %
14:00:00 few clouds 33.390 33.390 33.390 19 1.56 m/h 0 %
17:00:00 clear sky 33.240 33.240 33.240 21 0.75 m/h 0 %
20:00:00 scattered clouds 27.180 27.180 27.180 26 2.65 m/h 0 %
23:00:00 scattered clouds 25.430 25.430 25.430 30 3.09 m/h 0 %
14-Apr-2020 (Tue)
02:00:00 scattered clouds 23.400 23.400 23.400 35 2.4 m/h 0 %

Famous Cities (61)